首页
METAR-TAF:

METAR-TAF

机场 :

新山一國際機場

胡志明, 越南

纬度: 10-49N, 经度: 106-40E, 海拔: 19米

当前天气观测

该预报发布于31分钟前的21:00 UTC
静风
温度 25°C
湿度 94%
气压 1009 hPa
能見度: 7000
散云层高于1500英尺
散云层高于4000英尺

METAR: VVTS 222100Z 00000KT 7000 SCT015 SCT040 25/24 Q1009 NOSIG

时间: 04:31 (21:31 UTC)

预报

该预报发布于4小时和31分钟前的17:00 UTC
预报有效从22日的 18点(UTC)到 23日的 24点(UTC)
风速3节,风向北转东北
能见度10公里或以上
散云层高于1500英尺
成为
从 22日的 21点(UTC)到 22日的 23点(UTC)
能見度: 2000
轻雾
成为
从 23日的 00点(UTC)到 23日的 01点(UTC)
能见度10公里或以上
短暂存在
从 23日的 07点(UTC)到 23日的 11点(UTC)
风速15节,风向,有时为25节阵风
能見度: 3000
多云层高于1300英尺
散云层高于1500英尺, 积雨云.
雷暴, 雨

TAF: VVTS 221700Z 2218/2324 02003KT 9999 SCT015 BECMG 2221/2223 2000 BR BECMG 2300/2301 9999 NSW TEMPO 2307/2311 08015G25KT 3000 TSRA BKN013 SCT015CB

超过4000个机场的气象观测和天气预报(METAR&TAF报告)。

可查询的气象台以黄色和红色小点在地图上表示。

将鼠标移到小点上方,可查看气象台名称。

然后点击查看天气观测和预报。

如需切换地图:点击带黑十字的绿色按钮放大地图;点击带横线的绿色按钮缩小地图;或者点击绿色箭头查看邻近地区的地图。


METAR-TAF: